sensor_id;sensor_type;location;lat;lon;timestamp;pressure;altitude;pressure_sealevel;temperature;humidity
70338;BME280;57757;53.198;19.646;2024-01-30T00:00:42;101742.64;;;1.19;76.86
70338;BME280;57757;53.198;19.646;2024-01-30T00:03:29;101740.92;;;1.19;77.00
70338;BME280;57757;53.198;19.646;2024-01-30T00:05:57;101734.92;;;1.19;77.07
70338;BME280;57757;53.198;19.646;2024-01-30T00:08:26;101735.58;;;1.18;76.91
70338;BME280;57757;53.198;19.646;2024-01-30T00:10:54;101733.31;;;1.17;77.07
70338;BME280;57757;53.198;19.646;2024-01-30T00:13:22;101731.18;;;1.16;77.00
70338;BME280;57757;53.198;19.646;2024-01-30T00:15:50;101736.98;;;1.15;77.02
70338;BME280;57757;53.198;19.646;2024-01-30T00:18:18;101739.05;;;1.15;76.99
70338;BME280;57757;53.198;19.646;2024-01-30T00:20:46;101738.84;;;1.14;77.01
70338;BME280;57757;53.198;19.646;2024-01-30T00:23:13;101731.73;;;1.12;76.97
70338;BME280;57757;53.198;19.646;2024-01-30T00:25:41;101729.34;;;1.13;77.04
70338;BME280;57757;53.198;19.646;2024-01-30T00:28:08;101727.92;;;1.12;77.12
70338;BME280;57757;53.198;19.646;2024-01-30T00:30:36;101729.15;;;1.12;77.14
70338;BME280;57757;53.198;19.646;2024-01-30T00:33:04;101727.24;;;1.12;76.93
70338;BME280;57757;53.198;19.646;2024-01-30T00:35:32;101727.54;;;1.10;76.90
70338;BME280;57757;53.198;19.646;2024-01-30T00:37:59;101731.45;;;1.09;76.93
70338;BME280;57757;53.198;19.646;2024-01-30T00:40:27;101735.03;;;1.09;76.87
70338;BME280;57757;53.198;19.646;2024-01-30T00:42:54;101732.25;;;1.08;76.97
70338;BME280;57757;53.198;19.646;2024-01-30T00:45:22;101733.60;;;1.07;77.00
70338;BME280;57757;53.198;19.646;2024-01-30T00:47:50;101735.28;;;1.06;76.92
70338;BME280;57757;53.198;19.646;2024-01-30T00:50:17;101733.33;;;1.05;77.02
70338;BME280;57757;53.198;19.646;2024-01-30T00:52:45;101729.00;;;1.04;76.97
70338;BME280;57757;53.198;19.646;2024-01-30T00:55:13;101729.85;;;1.04;77.01
70338;BME280;57757;53.198;19.646;2024-01-30T00:57:41;101737.56;;;1.04;77.05
70338;BME280;57757;53.198;19.646;2024-01-30T01:00:13;101735.46;;;1.02;77.00
70338;BME280;57757;53.198;19.646;2024-01-30T01:02:44;101738.34;;;1.02;77.09
70338;BME280;57757;53.198;19.646;2024-01-30T01:05:12;101735.20;;;1.01;76.92
70338;BME280;57757;53.198;19.646;2024-01-30T01:07:39;101733.30;;;0.99;76.86
70338;BME280;57757;53.198;19.646;2024-01-30T01:10:07;101724.51;;;0.98;76.90
70338;BME280;57757;53.198;19.646;2024-01-30T01:12:36;101726.34;;;0.97;76.93
70338;BME280;57757;53.198;19.646;2024-01-30T01:15:03;101723.20;;;0.95;76.94
70338;BME280;57757;53.198;19.646;2024-01-30T01:17:32;101721.42;;;0.94;76.96
70338;BME280;57757;53.198;19.646;2024-01-30T01:19:59;101720.95;;;0.91;76.98
70338;BME280;57757;53.198;19.646;2024-01-30T01:22:27;101723.11;;;0.89;76.98
70338;BME280;57757;53.198;19.646;2024-01-30T01:24:55;101724.38;;;0.86;76.83
70338;BME280;57757;53.198;19.646;2024-01-30T01:27:22;101726.39;;;0.85;76.83
70338;BME280;57757;53.198;19.646;2024-01-30T01:29:50;101717.40;;;0.83;76.89
70338;BME280;57757;53.198;19.646;2024-01-30T01:32:18;101719.02;;;0.81;77.01
70338;BME280;57757;53.198;19.646;2024-01-30T01:34:46;101718.30;;;0.81;77.01
70338;BME280;57757;53.198;19.646;2024-01-30T01:37:14;101717.20;;;0.79;76.92
70338;BME280;57757;53.198;19.646;2024-01-30T01:39:41;101714.75;;;0.78;77.05
70338;BME280;57757;53.198;19.646;2024-01-30T01:42:09;101711.77;;;0.76;76.93
70338;BME280;57757;53.198;19.646;2024-01-30T01:44:36;101707.60;;;0.74;76.98
70338;BME280;57757;53.198;19.646;2024-01-30T01:47:04;101709.12;;;0.73;77.12
70338;BME280;57757;53.198;19.646;2024-01-30T01:49:31;101704.80;;;0.72;76.98
70338;BME280;57757;53.198;19.646;2024-01-30T01:52:00;101704.23;;;0.71;77.10
70338;BME280;57757;53.198;19.646;2024-01-30T01:54:29;101703.30;;;0.69;76.95
70338;BME280;57757;53.198;19.646;2024-01-30T01:56:56;101700.05;;;0.69;77.08
70338;BME280;57757;53.198;19.646;2024-01-30T01:59:24;101701.38;;;0.68;77.11
70338;BME280;57757;53.198;19.646;2024-01-30T02:01:55;101701.97;;;0.67;77.06
70338;BME280;57757;53.198;19.646;2024-01-30T02:04:23;101704.00;;;0.66;77.02
70338;BME280;57757;53.198;19.646;2024-01-30T02:06:51;101697.65;;;0.65;77.03
70338;BME280;57757;53.198;19.646;2024-01-30T02:09:19;101698.25;;;0.63;76.93
70338;BME280;57757;53.198;19.646;2024-01-30T02:11:47;101703.82;;;0.61;77.04
70338;BME280;57757;53.198;19.646;2024-01-30T02:14:14;101705.64;;;0.60;77.07
70338;BME280;57757;53.198;19.646;2024-01-30T02:16:42;101705.23;;;0.58;76.89
70338;BME280;57757;53.198;19.646;2024-01-30T02:19:10;101706.38;;;0.57;76.96
70338;BME280;57757;53.198;19.646;2024-01-30T02:21:38;101700.67;;;0.56;77.06
70338;BME280;57757;53.198;19.646;2024-01-30T02:24:06;101703.02;;;0.54;76.91
70338;BME280;57757;53.198;19.646;2024-01-30T02:26:34;101705.70;;;0.53;76.89
70338;BME280;57757;53.198;19.646;2024-01-30T02:29:01;101699.06;;;0.50;76.93
70338;BME280;57757;53.198;19.646;2024-01-30T02:31:29;101699.14;;;0.47;77.02
70338;BME280;57757;53.198;19.646;2024-01-30T02:33:57;101700.81;;;0.46;77.12
70338;BME280;57757;53.198;19.646;2024-01-30T02:36:24;101695.11;;;0.45;76.89
70338;BME280;57757;53.198;19.646;2024-01-30T02:38:52;101701.19;;;0.43;77.07
70338;BME280;57757;53.198;19.646;2024-01-30T02:41:19;101697.13;;;0.40;76.94
70338;BME280;57757;53.198;19.646;2024-01-30T02:43:47;101696.67;;;0.37;77.13
70338;BME280;57757;53.198;19.646;2024-01-30T02:46:15;101695.57;;;0.36;77.04
70338;BME280;57757;53.198;19.646;2024-01-30T02:48:42;101694.50;;;0.35;77.15
70338;BME280;57757;53.198;19.646;2024-01-30T02:51:10;101690.17;;;0.33;77.14
70338;BME280;57757;53.198;19.646;2024-01-30T02:53:38;101689.77;;;0.32;77.15
70338;BME280;57757;53.198;19.646;2024-01-30T02:56:05;101692.30;;;0.31;77.21
70338;BME280;57757;53.198;19.646;2024-01-30T02:58:33;101692.09;;;0.30;77.05
70338;BME280;57757;53.198;19.646;2024-01-30T03:01:00;101692.92;;;0.29;77.22
70338;BME280;57757;53.198;19.646;2024-01-30T03:03:28;101694.97;;;0.29;77.10
70338;BME280;57757;53.198;19.646;2024-01-30T03:05:56;101695.23;;;0.28;77.17
70338;BME280;57757;53.198;19.646;2024-01-30T03:08:23;101693.08;;;0.29;77.27
70338;BME280;57757;53.198;19.646;2024-01-30T03:10:51;101689.83;;;0.29;77.26
70338;BME280;57757;53.198;19.646;2024-01-30T03:13:18;101689.61;;;0.28;77.22
70338;BME280;57757;53.198;19.646;2024-01-30T03:15:46;101697.48;;;0.28;77.29
70338;BME280;57757;53.198;19.646;2024-01-30T03:18:14;101693.33;;;0.27;77.30
70338;BME280;57757;53.198;19.646;2024-01-30T03:20:42;101695.55;;;0.27;77.40
70338;BME280;57757;53.198;19.646;2024-01-30T03:23:09;101695.39;;;0.27;77.27
70338;BME280;57757;53.198;19.646;2024-01-30T03:25:37;101699.49;;;0.27;77.28
70338;BME280;57757;53.198;19.646;2024-01-30T03:28:04;101698.77;;;0.26;77.21
70338;BME280;57757;53.198;19.646;2024-01-30T03:30:32;101699.08;;;0.25;77.37
70338;BME280;57757;53.198;19.646;2024-01-30T03:32:59;101696.33;;;0.25;77.23
70338;BME280;57757;53.198;19.646;2024-01-30T03:35:27;101698.23;;;0.25;77.29
70338;BME280;57757;53.198;19.646;2024-01-30T03:37:54;101699.06;;;0.25;77.43
70338;BME280;57757;53.198;19.646;2024-01-30T03:40:23;101700.23;;;0.24;77.41
70338;BME280;57757;53.198;19.646;2024-01-30T03:42:50;101693.36;;;0.24;77.35
70338;BME280;57757;53.198;19.646;2024-01-30T03:45:18;101688.70;;;0.23;77.32
70338;BME280;57757;53.198;19.646;2024-01-30T03:47:46;101690.09;;;0.24;77.42
70338;BME280;57757;53.198;19.646;2024-01-30T03:50:14;101689.56;;;0.23;77.38
70338;BME280;57757;53.198;19.646;2024-01-30T03:52:42;101689.55;;;0.22;77.30
70338;BME280;57757;53.198;19.646;2024-01-30T03:55:09;101692.25;;;0.22;77.37
70338;BME280;57757;53.198;19.646;2024-01-30T03:57:37;101691.92;;;0.22;77.43
70338;BME280;57757;53.198;19.646;2024-01-30T04:00:05;101691.90;;;0.22;77.40
70338;BME280;57757;53.198;19.646;2024-01-30T04:02:33;101694.56;;;0.20;77.24
70338;BME280;57757;53.198;19.646;2024-01-30T04:05:00;101691.42;;;0.19;77.43
70338;BME280;57757;53.198;19.646;2024-01-30T04:07:28;101689.67;;;0.17;77.45
70338;BME280;57757;53.198;19.646;2024-01-30T04:09:56;101691.15;;;0.16;77.49
70338;BME280;57757;53.198;19.646;2024-01-30T04:12:24;101688.07;;;0.16;77.39
70338;BME280;57757;53.198;19.646;2024-01-30T04:14:52;101686.19;;;0.16;77.44
70338;BME280;57757;53.198;19.646;2024-01-30T04:17:20;101688.94;;;0.17;77.38
70338;BME280;57757;53.198;19.646;2024-01-30T04:19:48;101687.20;;;0.16;77.46
70338;BME280;57757;53.198;19.646;2024-01-30T04:22:15;101685.46;;;0.15;77.38
70338;BME280;57757;53.198;19.646;2024-01-30T04:24:43;101682.20;;;0.14;77.36
70338;BME280;57757;53.198;19.646;2024-01-30T04:27:10;101685.89;;;0.13;77.45
70338;BME280;57757;53.198;19.646;2024-01-30T04:29:38;101678.13;;;0.12;77.38
70338;BME280;57757;53.198;19.646;2024-01-30T04:32:06;101677.79;;;0.12;77.42
70338;BME280;57757;53.198;19.646;2024-01-30T04:34:33;101676.75;;;0.11;77.40
70338;BME280;57757;53.198;19.646;2024-01-30T04:37:01;101675.85;;;0.10;77.38
70338;BME280;57757;53.198;19.646;2024-01-30T04:39:28;101680.67;;;0.11;77.56
70338;BME280;57757;53.198;19.646;2024-01-30T04:41:56;101680.70;;;0.12;77.44
70338;BME280;57757;53.198;19.646;2024-01-30T04:44:23;101679.90;;;0.13;77.44
70338;BME280;57757;53.198;19.646;2024-01-30T04:46:51;101682.69;;;0.14;77.58
70338;BME280;57757;53.198;19.646;2024-01-30T04:49:18;101679.16;;;0.16;77.50
70338;BME280;57757;53.198;19.646;2024-01-30T04:51:46;101678.64;;;0.16;77.50
70338;BME280;57757;53.198;19.646;2024-01-30T04:54:14;101678.65;;;0.15;77.42
70338;BME280;57757;53.198;19.646;2024-01-30T04:56:42;101679.02;;;0.17;77.56
70338;BME280;57757;53.198;19.646;2024-01-30T04:59:09;101675.83;;;0.18;77.42
70338;BME280;57757;53.198;19.646;2024-01-30T05:01:37;101681.32;;;0.18;77.62
70338;BME280;57757;53.198;19.646;2024-01-30T05:04:07;101677.73;;;0.18;77.51
70338;BME280;57757;53.198;19.646;2024-01-30T05:06:35;101683.23;;;0.19;77.56
70338;BME280;57757;53.198;19.646;2024-01-30T05:09:03;101679.30;;;0.19;77.54
70338;BME280;57757;53.198;19.646;2024-01-30T05:11:40;101672.30;;;0.20;77.54
70338;BME280;57757;53.198;19.646;2024-01-30T05:14:08;101667.86;;;0.20;77.52
70338;BME280;57757;53.198;19.646;2024-01-30T05:16:36;101665.48;;;0.20;77.53
70338;BME280;57757;53.198;19.646;2024-01-30T05:19:04;101660.84;;;0.20;77.49
70338;BME280;57757;53.198;19.646;2024-01-30T05:21:32;101661.55;;;0.20;77.69
70338;BME280;57757;53.198;19.646;2024-01-30T05:24:00;101662.63;;;0.21;77.53
70338;BME280;57757;53.198;19.646;2024-01-30T05:26:27;101660.98;;;0.22;77.54
70338;BME280;57757;53.198;19.646;2024-01-30T05:28:55;101658.26;;;0.23;77.63
70338;BME280;57757;53.198;19.646;2024-01-30T05:31:22;101658.16;;;0.25;77.52
70338;BME280;57757;53.198;19.646;2024-01-30T05:33:50;101655.50;;;0.26;77.70
70338;BME280;57757;53.198;19.646;2024-01-30T05:36:18;101655.52;;;0.27;77.66
70338;BME280;57757;53.198;19.646;2024-01-30T05:38:46;101653.52;;;0.28;77.64
70338;BME280;57757;53.198;19.646;2024-01-30T05:41:13;101653.41;;;0.30;77.66
70338;BME280;57757;53.198;19.646;2024-01-30T05:43:41;101655.33;;;0.31;77.65
70338;BME280;57757;53.198;19.646;2024-01-30T05:46:09;101656.11;;;0.33;77.67
70338;BME280;57757;53.198;19.646;2024-01-30T05:48:37;101657.23;;;0.35;77.71
70338;BME280;57757;53.198;19.646;2024-01-30T05:51:04;101654.42;;;0.38;77.73
70338;BME280;57757;53.198;19.646;2024-01-30T05:53:32;101656.42;;;0.40;77.67
70338;BME280;57757;53.198;19.646;2024-01-30T05:56:04;101654.95;;;0.42;77.81
70338;BME280;57757;53.198;19.646;2024-01-30T05:58:32;101656.48;;;0.46;77.83
70338;BME280;57757;53.198;19.646;2024-01-30T06:00:59;101657.60;;;0.48;77.68
70338;BME280;57757;53.198;19.646;2024-01-30T06:03:27;101657.57;;;0.52;77.76
70338;BME280;57757;53.198;19.646;2024-01-30T06:05:55;101654.05;;;0.54;77.62
70338;BME280;57757;53.198;19.646;2024-01-30T06:08:22;101655.84;;;0.56;77.70
70338;BME280;57757;53.198;19.646;2024-01-30T06:10:50;101656.06;;;0.58;77.64
70338;BME280;57757;53.198;19.646;2024-01-30T06:13:17;101658.91;;;0.60;77.68
70338;BME280;57757;53.198;19.646;2024-01-30T06:15:45;101658.96;;;0.61;77.63
70338;BME280;57757;53.198;19.646;2024-01-30T06:18:13;101664.84;;;0.62;77.66
70338;BME280;57757;53.198;19.646;2024-01-30T06:20:41;101670.40;;;0.64;77.57
70338;BME280;57757;53.198;19.646;2024-01-30T06:23:08;101664.27;;;0.65;77.53
70338;BME280;57757;53.198;19.646;2024-01-30T06:25:36;101670.42;;;0.65;77.50
70338;BME280;57757;53.198;19.646;2024-01-30T06:28:04;101672.29;;;0.65;77.53
70338;BME280;57757;53.198;19.646;2024-01-30T06:30:32;101672.21;;;0.63;77.37
70338;BME280;57757;53.198;19.646;2024-01-30T06:32:59;101672.85;;;0.62;77.52
70338;BME280;57757;53.198;19.646;2024-01-30T06:35:27;101668.90;;;0.61;77.48
70338;BME280;57757;53.198;19.646;2024-01-30T06:37:56;101665.48;;;0.61;77.53
70338;BME280;57757;53.198;19.646;2024-01-30T06:40:24;101659.81;;;0.61;77.55
70338;BME280;57757;53.198;19.646;2024-01-30T06:42:52;101659.33;;;0.62;77.56
70338;BME280;57757;53.198;19.646;2024-01-30T06:45:19;101661.23;;;0.62;77.68
70338;BME280;57757;53.198;19.646;2024-01-30T06:47:47;101664.66;;;0.62;77.61
70338;BME280;57757;53.198;19.646;2024-01-30T06:50:14;101669.48;;;0.63;77.59
70338;BME280;57757;53.198;19.646;2024-01-30T06:52:42;101674.17;;;0.65;77.57
70338;BME280;57757;53.198;19.646;2024-01-30T06:55:10;101675.94;;;0.66;77.68
70338;BME280;57757;53.198;19.646;2024-01-30T06:57:37;101676.40;;;0.69;77.50
70338;BME280;57757;53.198;19.646;2024-01-30T07:00:09;101679.02;;;0.70;77.58
70338;BME280;57757;53.198;19.646;2024-01-30T07:02:36;101674.31;;;0.72;77.68
70338;BME280;57757;53.198;19.646;2024-01-30T07:05:04;101677.98;;;0.74;77.55
70338;BME280;57757;53.198;19.646;2024-01-30T07:07:32;101676.16;;;0.76;77.58
70338;BME280;57757;53.198;19.646;2024-01-30T07:10:00;101677.84;;;0.79;77.57
70338;BME280;57757;53.198;19.646;2024-01-30T07:12:30;101677.09;;;0.82;77.54
70338;BME280;57757;53.198;19.646;2024-01-30T07:14:58;101677.63;;;0.86;77.63
70338;BME280;57757;53.198;19.646;2024-01-30T07:17:27;101673.09;;;0.89;77.68
70338;BME280;57757;53.198;19.646;2024-01-30T07:19:55;101673.59;;;0.93;77.65
70338;BME280;57757;53.198;19.646;2024-01-30T07:22:23;101673.79;;;0.98;77.74
70338;BME280;57757;53.198;19.646;2024-01-30T07:24:50;101675.36;;;1.03;77.71
70338;BME280;57757;53.198;19.646;2024-01-30T07:27:19;101674.65;;;1.07;77.67
70338;BME280;57757;53.198;19.646;2024-01-30T07:29:47;101675.08;;;1.09;77.64
70338;BME280;57757;53.198;19.646;2024-01-30T07:32:15;101680.16;;;1.12;77.53
70338;BME280;57757;53.198;19.646;2024-01-30T07:34:42;101681.45;;;1.15;77.54
70338;BME280;57757;53.198;19.646;2024-01-30T07:37:29;101691.36;;;1.18;77.51
70338;BME280;57757;53.198;19.646;2024-01-30T07:39:57;101690.77;;;1.20;77.55
70338;BME280;57757;53.198;19.646;2024-01-30T07:42:24;101692.92;;;1.23;77.58
70338;BME280;57757;53.198;19.646;2024-01-30T07:44:53;101693.77;;;1.27;77.55
70338;BME280;57757;53.198;19.646;2024-01-30T07:47:20;101691.02;;;1.32;77.58
70338;BME280;57757;53.198;19.646;2024-01-30T07:49:48;101688.77;;;1.36;77.65
70338;BME280;57757;53.198;19.646;2024-01-30T07:52:17;101687.70;;;1.39;77.52
70338;BME280;57757;53.198;19.646;2024-01-30T07:54:47;101684.36;;;1.42;77.44
70338;BME280;57757;53.198;19.646;2024-01-30T07:57:15;101683.48;;;1.45;77.49
70338;BME280;57757;53.198;19.646;2024-01-30T07:59:44;101680.68;;;1.49;77.42
70338;BME280;57757;53.198;19.646;2024-01-30T08:02:12;101684.08;;;1.52;77.47
70338;BME280;57757;53.198;19.646;2024-01-30T08:04:40;101681.27;;;1.55;77.38
70338;BME280;57757;53.198;19.646;2024-01-30T08:07:08;101682.61;;;1.59;77.36
70338;BME280;57757;53.198;19.646;2024-01-30T08:09:36;101687.56;;;1.63;77.53
70338;BME280;57757;53.198;19.646;2024-01-30T08:12:04;101683.23;;;1.67;77.58
70338;BME280;57757;53.198;19.646;2024-01-30T08:14:32;101683.34;;;1.70;77.45
70338;BME280;57757;53.198;19.646;2024-01-30T08:16:59;101679.68;;;1.72;77.53
70338;BME280;57757;53.198;19.646;2024-01-30T08:19:27;101677.30;;;1.78;77.64
70338;BME280;57757;53.198;19.646;2024-01-30T08:21:54;101672.83;;;1.82;77.49
70338;BME280;57757;53.198;19.646;2024-01-30T08:24:23;101671.09;;;1.86;77.64
70338;BME280;57757;53.198;19.646;2024-01-30T08:26:50;101670.71;;;1.90;77.62
70338;BME280;57757;53.198;19.646;2024-01-30T08:29:18;101670.66;;;1.94;77.40
70338;BME280;57757;53.198;19.646;2024-01-30T08:31:46;101673.33;;;1.97;77.47
70338;BME280;57757;53.198;19.646;2024-01-30T08:34:13;101672.95;;;2.00;77.31
70338;BME280;57757;53.198;19.646;2024-01-30T08:36:41;101672.20;;;2.04;77.53
70338;BME280;57757;53.198;19.646;2024-01-30T08:39:08;101670.36;;;2.09;77.46
70338;BME280;57757;53.198;19.646;2024-01-30T08:41:36;101672.59;;;2.15;77.44
70338;BME280;57757;53.198;19.646;2024-01-30T08:44:03;101675.86;;;2.20;77.34
70338;BME280;57757;53.198;19.646;2024-01-30T08:46:32;101674.33;;;2.25;77.38
70338;BME280;57757;53.198;19.646;2024-01-30T08:48:59;101678.19;;;2.32;77.48
70338;BME280;57757;53.198;19.646;2024-01-30T08:51:27;101678.59;;;2.39;77.46
70338;BME280;57757;53.198;19.646;2024-01-30T08:53:55;101678.11;;;2.46;77.46
70338;BME280;57757;53.198;19.646;2024-01-30T08:56:23;101680.58;;;2.53;77.48
70338;BME280;57757;53.198;19.646;2024-01-30T08:58:50;101677.48;;;2.58;77.41
70338;BME280;57757;53.198;19.646;2024-01-30T09:01:18;101679.02;;;2.63;77.38
70338;BME280;57757;53.198;19.646;2024-01-30T09:03:46;101674.72;;;2.68;77.47
70338;BME280;57757;53.198;19.646;2024-01-30T09:06:14;101677.84;;;2.74;77.36
70338;BME280;57757;53.198;19.646;2024-01-30T09:08:42;101676.95;;;2.79;77.44
70338;BME280;57757;53.198;19.646;2024-01-30T09:11:12;101677.95;;;2.83;77.27
70338;BME280;57757;53.198;19.646;2024-01-30T09:13:40;101676.02;;;2.87;77.20
70338;BME280;57757;53.198;19.646;2024-01-30T09:16:08;101674.95;;;2.91;77.29
70338;BME280;57757;53.198;19.646;2024-01-30T09:18:36;101672.35;;;2.96;77.45
70338;BME280;57757;53.198;19.646;2024-01-30T09:21:04;101668.81;;;3.04;77.30
70338;BME280;57757;53.198;19.646;2024-01-30T09:23:32;101668.23;;;3.13;77.31
70338;BME280;57757;53.198;19.646;2024-01-30T09:25:59;101664.46;;;3.24;77.35
70338;BME280;57757;53.198;19.646;2024-01-30T09:28:27;101661.04;;;3.37;77.40
70338;BME280;57757;53.198;19.646;2024-01-30T09:30:55;101660.87;;;3.49;77.44
70338;BME280;57757;53.198;19.646;2024-01-30T09:33:22;101660.84;;;3.60;77.27
70338;BME280;57757;53.198;19.646;2024-01-30T09:35:50;101657.69;;;3.70;77.38
70338;BME280;57757;53.198;19.646;2024-01-30T09:38:18;101654.67;;;3.79;77.10
70338;BME280;57757;53.198;19.646;2024-01-30T09:40:51;101651.30;;;3.88;77.13
70338;BME280;57757;53.198;19.646;2024-01-30T09:43:23;101652.32;;;4.00;77.25
70338;BME280;57757;53.198;19.646;2024-01-30T09:45:55;101648.66;;;4.11;77.25
70338;BME280;57757;53.198;19.646;2024-01-30T09:48:25;101650.66;;;4.22;77.15
70338;BME280;57757;53.198;19.646;2024-01-30T09:50:54;101647.32;;;4.33;77.16
70338;BME280;57757;53.198;19.646;2024-01-30T09:53:22;101648.08;;;4.44;77.06
70338;BME280;57757;53.198;19.646;2024-01-30T09:55:50;101646.63;;;4.54;76.92
70338;BME280;57757;53.198;19.646;2024-01-30T09:58:18;101644.86;;;4.66;77.12
70338;BME280;57757;53.198;19.646;2024-01-30T10:00:46;101646.25;;;4.82;77.16
70338;BME280;57757;53.198;19.646;2024-01-30T10:03:13;101641.23;;;4.96;77.20
70338;BME280;57757;53.198;19.646;2024-01-30T10:05:50;101633.48;;;5.11;77.12
70338;BME280;57757;53.198;19.646;2024-01-30T10:08:19;101635.21;;;5.28;76.92
70338;BME280;57757;53.198;19.646;2024-01-30T10:10:47;101633.87;;;5.39;76.89
70338;BME280;57757;53.198;19.646;2024-01-30T10:13:15;101633.99;;;5.53;76.84
70338;BME280;57757;53.198;19.646;2024-01-30T10:15:43;101625.32;;;5.68;76.87
70338;BME280;57757;53.198;19.646;2024-01-30T10:18:12;101625.11;;;5.91;76.93
70338;BME280;57757;53.198;19.646;2024-01-30T10:20:39;101622.46;;;6.17;77.26
70338;BME280;57757;53.198;19.646;2024-01-30T10:23:07;101616.92;;;6.47;77.22
70338;BME280;57757;53.198;19.646;2024-01-30T10:25:35;101610.89;;;6.71;76.84
70338;BME280;57757;53.198;19.646;2024-01-30T10:28:03;101612.48;;;6.96;76.69
70338;BME280;57757;53.198;19.646;2024-01-30T10:30:31;101601.53;;;7.17;76.64
70338;BME280;57757;53.198;19.646;2024-01-30T10:32:59;101599.64;;;7.48;76.94
70338;BME280;57757;53.198;19.646;2024-01-30T10:35:26;101593.48;;;7.86;77.09
70338;BME280;57757;53.198;19.646;2024-01-30T10:37:56;101589.20;;;8.09;76.22
70338;BME280;57757;53.198;19.646;2024-01-30T10:40:28;101588.98;;;8.25;75.73
70338;BME280;57757;53.198;19.646;2024-01-30T10:43:01;101585.55;;;8.26;74.72
70338;BME280;57757;53.198;19.646;2024-01-30T10:45:32;101581.67;;;8.00;73.77
70338;BME280;57757;53.198;19.646;2024-01-30T10:48:03;101583.66;;;7.74;74.03
70338;BME280;57757;53.198;19.646;2024-01-30T10:50:34;101584.44;;;7.83;74.97
70338;BME280;57757;53.198;19.646;2024-01-30T10:53:12;101581.58;;;8.09;75.60
70338;BME280;57757;53.198;19.646;2024-01-30T10:55:41;101580.27;;;8.37;75.79
70338;BME280;57757;53.198;19.646;2024-01-30T10:58:09;101578.20;;;8.61;75.65
70338;BME280;57757;53.198;19.646;2024-01-30T11:00:39;101573.31;;;8.83;75.26
70338;BME280;57757;53.198;19.646;2024-01-30T11:03:07;101568.38;;;9.00;75.41
70338;BME280;57757;53.198;19.646;2024-01-30T11:05:35;101566.73;;;9.24;75.49
70338;BME280;57757;53.198;19.646;2024-01-30T11:08:15;101560.91;;;9.46;75.43
70338;BME280;57757;53.198;19.646;2024-01-30T11:10:49;101560.29;;;9.74;75.27
70338;BME280;57757;53.198;19.646;2024-01-30T11:13:19;101557.54;;;9.91;74.78
70338;BME280;57757;53.198;19.646;2024-01-30T11:15:47;101553.02;;;9.93;73.77
70338;BME280;57757;53.198;19.646;2024-01-30T11:20:49;101545.40;;;10.21;74.90
70338;BME280;57757;53.198;19.646;2024-01-30T11:23:17;101544.52;;;10.48;74.94
70338;BME280;57757;53.198;19.646;2024-01-30T11:25:44;101538.58;;;10.66;74.39
70338;BME280;57757;53.198;19.646;2024-01-30T11:28:15;101531.23;;;10.74;73.85
70338;BME280;57757;53.198;19.646;2024-01-30T11:30:46;101527.58;;;10.77;73.40
70338;BME280;57757;53.198;19.646;2024-01-30T11:33:27;101525.50;;;10.74;72.77
70338;BME280;57757;53.198;19.646;2024-01-30T11:36:01;101525.67;;;10.70;72.82
70338;BME280;57757;53.198;19.646;2024-01-30T11:38:29;101527.95;;;10.69;72.54
70338;BME280;57757;53.198;19.646;2024-01-30T11:40:57;101526.73;;;10.66;72.35
70338;BME280;57757;53.198;19.646;2024-01-30T11:43:24;101524.46;;;10.67;72.51
70338;BME280;57757;53.198;19.646;2024-01-30T11:45:52;101522.71;;;10.74;72.65
70338;BME280;57757;53.198;19.646;2024-01-30T11:48:20;101528.63;;;10.80;72.11
70338;BME280;57757;53.198;19.646;2024-01-30T11:50:48;101530.20;;;10.75;71.71
70338;BME280;57757;53.198;19.646;2024-01-30T11:53:16;101525.52;;;10.68;71.39
70338;BME280;57757;53.198;19.646;2024-01-30T11:55:49;101527.60;;;10.68;71.92
70338;BME280;57757;53.198;19.646;2024-01-30T11:58:17;101526.71;;;10.76;72.22
70338;BME280;57757;53.198;19.646;2024-01-30T12:00:53;101525.65;;;10.84;72.10
70338;BME280;57757;53.198;19.646;2024-01-30T12:03:21;101525.79;;;10.93;72.23
70338;BME280;57757;53.198;19.646;2024-01-30T12:05:55;101518.98;;;10.99;72.01
70338;BME280;57757;53.198;19.646;2024-01-30T12:08:22;101518.63;;;11.00;71.79
70338;BME280;57757;53.198;19.646;2024-01-30T12:13:25;101518.84;;;10.88;71.58
70338;BME280;57757;53.198;19.646;2024-01-30T12:15:59;101517.14;;;10.77;71.03
70338;BME280;57757;53.198;19.646;2024-01-30T12:18:28;101519.46;;;10.55;70.87
70338;BME280;57757;53.198;19.646;2024-01-30T12:20:59;101520.36;;;10.35;70.89
70338;BME280;57757;53.198;19.646;2024-01-30T12:23:27;101517.41;;;10.16;70.65
70338;BME280;57757;53.198;19.646;2024-01-30T12:25:55;101515.84;;;9.97;70.54
70338;BME280;57757;53.198;19.646;2024-01-30T12:28:23;101516.35;;;9.83;70.94
70338;BME280;57757;53.198;19.646;2024-01-30T12:30:56;101512.52;;;9.71;71.00
70338;BME280;57757;53.198;19.646;2024-01-30T12:33:26;101511.45;;;9.61;71.22
70338;BME280;57757;53.198;19.646;2024-01-30T12:35:56;101513.70;;;9.54;70.95
70338;BME280;57757;53.198;19.646;2024-01-30T12:38:30;101511.61;;;9.46;70.89
70338;BME280;57757;53.198;19.646;2024-01-30T12:40:58;101507.93;;;9.35;70.80
70338;BME280;57757;53.198;19.646;2024-01-30T12:43:26;101504.60;;;9.20;70.79
70338;BME280;57757;53.198;19.646;2024-01-30T12:46:05;101505.03;;;8.98;70.91
70338;BME280;57757;53.198;19.646;2024-01-30T12:48:34;101499.41;;;8.83;70.87
70338;BME280;57757;53.198;19.646;2024-01-30T12:51:02;101493.11;;;8.75;71.29
70338;BME280;57757;53.198;19.646;2024-01-30T12:53:29;101492.96;;;8.76;71.41
70338;BME280;57757;53.198;19.646;2024-01-30T12:55:57;101490.56;;;8.80;71.46
70338;BME280;57757;53.198;19.646;2024-01-30T12:58:25;101488.81;;;8.82;71.29
70338;BME280;57757;53.198;19.646;2024-01-30T13:00:53;101487.80;;;8.81;71.34